Portada
METAR-TAF:

METAR-TAF

Aeroports :

Malé, Maldives

latitud: 04-12N, longitud: 073-32E, altitud: 2 m

Observació

L'informe es va fer fa 35 minuts, a les 08:00 UTC
Vent 12 kt del Oest/Nord-Oest
Temperatura 31°C
Humitat 71%
Pressió 1012 hPa
Visibilitat 10 km o més
Escasses núvols a una alçada de 1800 ft

METAR: VRMM 190800Z 30012KT 9999 FEW018 31/25 Q1012 Q1012 NOSIG

Hora: 13:35 (08:35 UTC)

Pronòstic

L'informe es va fer fa 3 hores i 35 minuts, a les 05:00 UTC
Pronòstic vàlid del 19 a les 06 UTC al 20 a les 12 UTC
Vent 11 kt del Oest
Visibilitat 10 km o més
Escasses núvols a una alçada de 1800 ft, Cumulus congestus.
Temporalment
l' 19 a les 08 UTC al 19 a les 14 UTC
Escasses núvols a una alçada de 1800 ft, Cumulonimbus.

TAF: VRMM 190500Z 1906/2012 27011KT 9999 FEW018TCU TEMPO 1908/1914 FEW018CB

Observacions i pronòstics meteorològics de més de 4000 aeroports (METAR i TAF).

Les estacions disponibles són els punts grocs i vermells al mapa.

Posi el ratolí al punt desitjat per veure el nom de l'estació.

Feu clic per veure les observacions i els pronòstics meteorològics.

Per canviar el mapa: feu clic els botons verds amb una creu de color negre per apropar; al botó verd amb un guió per allunyar la imatge; o en les fletxes verdes per a mapes adjacents.


METAR-TAF: